Lawn Ridge, Illinois
Current Conditions -  °F | °C
As of 9:15 AM on Wednesday 26 Nov 2014 (Local Time) from KC75 Reporting Station
Clear Clear  
Wind Chill: -9°   Ceiling: Unl
Heat Index: -4°   Visibility: 7mi
Dew Point: -6°   Wind: 9mph
Humidity: 84%   Direction: 130°SE
Pressure: 30.11"   Gusts: NA
Location:  40.9686°N, 89.597°W
Report Text: KC75 261515Z AUTO 13008KT 7SM CLR M04/M06 A3011 RMK AO2 T10361060
Loading
Personal Weather Stations






























Interactive Weather Map New forecast layout! Learn more

10-Day Weather Forecast

Advertisements
Track Severe Weather on mobile